Fontanelle, Nebraska
Current Conditions -  °F | °C
As of 3:15 AM on Saturday 22 Nov 2014 (Local Time) from KFET Reporting Station
Haze Haze  
Wind Chill: 33°   Ceiling: 1500
Heat Index: 37°   Visibility: 5mi
Dew Point: 36°   Wind: 6mph
Humidity: 94%   Direction: 190°S
Pressure: 29.91"   Gusts: NA
Location:  41.5221°N, 96.4999°W
Report Text: KFET 220915Z AUTO 19005KT 5SM BR SCT007 OVC015 03/02 A2991 RMK AO2 T00300021
Loading
Personal Weather Stations






























Interactive Weather Map New forecast layout! Learn more

10-Day Weather Forecast

Advertisements
Track Severe Weather on mobile